Terminal Aerodrome Forecast
Issued by NWS

Home | Current Version | Previous Version | Text Only | Print | Product List | Glossary On
Versions: 1 2 3 4 5 6 7 8 9 10 11 12
000
FTUS46 KPDT 252323
TAFYKM
TAF
KYKM 252323Z 2600/2624 VRB05KT P6SM SCT090
     FM260100 32008KT P6SM SCT090
     FM261100 31009KT P6SM FEW090
     FM261900 32008KT P6SM SKC=

USA.gov is the U.S. government's official web portal to all federal, state and local government web resources and services.